sensor_id;sensor_type;location;lat;lon;timestamp;temperature;humidity
20700;DHT22;10511;51.232;9.420;2023-02-01T00:02:21;2.90;99.90
20700;DHT22;10511;51.232;9.420;2023-02-01T00:04:47;2.80;99.90
20700;DHT22;10511;51.232;9.420;2023-02-01T00:07:14;2.80;99.90
20700;DHT22;10511;51.232;9.420;2023-02-01T00:09:41;2.70;99.90
20700;DHT22;10511;51.232;9.420;2023-02-01T00:12:08;2.90;99.90
20700;DHT22;10511;51.232;9.420;2023-02-01T00:14:35;3.00;99.90
20700;DHT22;10511;51.232;9.420;2023-02-01T00:17:04;3.00;99.90
20700;DHT22;10511;51.232;9.420;2023-02-01T00:19:33;2.80;99.90
20700;DHT22;10511;51.232;9.420;2023-02-01T00:22:01;2.90;99.90
20700;DHT22;10511;51.232;9.420;2023-02-01T00:24:28;3.00;99.90
20700;DHT22;10511;51.232;9.420;2023-02-01T00:26:55;3.10;99.90
20700;DHT22;10511;51.232;9.420;2023-02-01T00:29:22;3.20;99.90
20700;DHT22;10511;51.232;9.420;2023-02-01T00:31:50;3.40;99.90
20700;DHT22;10511;51.232;9.420;2023-02-01T00:34:18;3.70;99.90
20700;DHT22;10511;51.232;9.420;2023-02-01T00:36:47;3.90;99.90
20700;DHT22;10511;51.232;9.420;2023-02-01T00:39:14;4.10;99.90
20700;DHT22;10511;51.232;9.420;2023-02-01T00:41:42;4.20;99.90
20700;DHT22;10511;51.232;9.420;2023-02-01T00:44:09;4.30;99.90
20700;DHT22;10511;51.232;9.420;2023-02-01T00:46:36;4.30;99.90
20700;DHT22;10511;51.232;9.420;2023-02-01T00:49:03;4.40;99.90
20700;DHT22;10511;51.232;9.420;2023-02-01T00:51:31;4.50;99.90
20700;DHT22;10511;51.232;9.420;2023-02-01T00:53:59;4.50;99.90
20700;DHT22;10511;51.232;9.420;2023-02-01T00:56:26;4.50;99.90
20700;DHT22;10511;51.232;9.420;2023-02-01T00:58:53;4.40;99.90
20700;DHT22;10511;51.232;9.420;2023-02-01T01:01:22;4.50;99.90
20700;DHT22;10511;51.232;9.420;2023-02-01T01:03:50;4.60;99.90
20700;DHT22;10511;51.232;9.420;2023-02-01T01:06:20;4.70;99.90
20700;DHT22;10511;51.232;9.420;2023-02-01T01:08:48;4.70;99.90
20700;DHT22;10511;51.232;9.420;2023-02-01T01:11:18;4.80;99.90
20700;DHT22;10511;51.232;9.420;2023-02-01T01:13:46;4.80;99.90
20700;DHT22;10511;51.232;9.420;2023-02-01T01:16:13;4.80;99.90
20700;DHT22;10511;51.232;9.420;2023-02-01T01:18:41;4.70;99.90
20700;DHT22;10511;51.232;9.420;2023-02-01T01:21:09;4.70;99.90
20700;DHT22;10511;51.232;9.420;2023-02-01T01:23:36;4.70;99.90
20700;DHT22;10511;51.232;9.420;2023-02-01T01:26:05;4.70;99.90
20700;DHT22;10511;51.232;9.420;2023-02-01T01:28:34;4.50;99.90
20700;DHT22;10511;51.232;9.420;2023-02-01T01:31:01;4.30;99.90
20700;DHT22;10511;51.232;9.420;2023-02-01T01:33:28;4.10;99.90
20700;DHT22;10511;51.232;9.420;2023-02-01T01:35:55;3.90;99.90
20700;DHT22;10511;51.232;9.420;2023-02-01T01:38:22;3.90;99.90
20700;DHT22;10511;51.232;9.420;2023-02-01T01:40:49;3.90;99.90
20700;DHT22;10511;51.232;9.420;2023-02-01T01:43:19;3.90;99.90
20700;DHT22;10511;51.232;9.420;2023-02-01T01:45:49;3.90;99.90
20700;DHT22;10511;51.232;9.420;2023-02-01T01:48:20;3.90;99.90
20700;DHT22;10511;51.232;9.420;2023-02-01T01:50:52;3.90;99.90
20700;DHT22;10511;51.232;9.420;2023-02-01T01:53:24;3.90;99.90
20700;DHT22;10511;51.232;9.420;2023-02-01T01:55:53;3.90;99.90
20700;DHT22;10511;51.232;9.420;2023-02-01T01:58:23;4.00;99.90
20700;DHT22;10511;51.232;9.420;2023-02-01T02:00:53;3.90;99.90
20700;DHT22;10511;51.232;9.420;2023-02-01T02:03:22;3.80;99.90
20700;DHT22;10511;51.232;9.420;2023-02-01T02:05:53;3.80;99.90
20700;DHT22;10511;51.232;9.420;2023-02-01T02:08:21;3.80;99.90
20700;DHT22;10511;51.232;9.420;2023-02-01T02:10:49;3.70;99.90
20700;DHT22;10511;51.232;9.420;2023-02-01T02:13:32;3.60;99.90
20700;DHT22;10511;51.232;9.420;2023-02-01T02:16:17;3.60;99.90
20700;DHT22;10511;51.232;9.420;2023-02-01T02:18:55;3.50;99.90
20700;DHT22;10511;51.232;9.420;2023-02-01T02:21:36;3.40;99.90
20700;DHT22;10511;51.232;9.420;2023-02-01T02:24:39;3.40;99.90
20700;DHT22;10511;51.232;9.420;2023-02-01T02:27:22;3.30;99.90
20700;DHT22;10511;51.232;9.420;2023-02-01T02:30:35;3.30;99.90
20700;DHT22;10511;51.232;9.420;2023-02-01T02:36:18;3.20;99.90
20700;DHT22;10511;51.232;9.420;2023-02-01T02:38:51;3.40;99.90
20700;DHT22;10511;51.232;9.420;2023-02-01T02:41:27;3.40;99.90
20700;DHT22;10511;51.232;9.420;2023-02-01T02:44:19;3.50;99.90
20700;DHT22;10511;51.232;9.420;2023-02-01T02:47:13;3.50;99.90
20700;DHT22;10511;51.232;9.420;2023-02-01T02:49:56;3.60;99.90
20700;DHT22;10511;51.232;9.420;2023-02-01T02:52:48;3.60;99.90
20700;DHT22;10511;51.232;9.420;2023-02-01T02:55:34;3.70;99.90
20700;DHT22;10511;51.232;9.420;2023-02-01T02:58:03;3.90;99.90
20700;DHT22;10511;51.232;9.420;2023-02-01T03:00:48;4.00;99.90
20700;DHT22;10511;51.232;9.420;2023-02-01T03:03:36;4.30;99.90
20700;DHT22;10511;51.232;9.420;2023-02-01T03:06:23;4.40;99.90
20700;DHT22;10511;51.232;9.420;2023-02-01T03:08:52;4.40;99.90
20700;DHT22;10511;51.232;9.420;2023-02-01T03:11:23;4.40;99.90
20700;DHT22;10511;51.232;9.420;2023-02-01T03:14:10;4.50;99.90
20700;DHT22;10511;51.232;9.420;2023-02-01T03:16:41;4.50;99.90
20700;DHT22;10511;51.232;9.420;2023-02-01T03:19:15;4.40;99.90
20700;DHT22;10511;51.232;9.420;2023-02-01T03:21:49;4.30;99.90
20700;DHT22;10511;51.232;9.420;2023-02-01T03:24:21;4.20;99.90
20700;DHT22;10511;51.232;9.420;2023-02-01T03:27:02;4.10;99.90
20700;DHT22;10511;51.232;9.420;2023-02-01T03:29:33;4.10;99.90
20700;DHT22;10511;51.232;9.420;2023-02-01T03:32:03;4.20;99.90
20700;DHT22;10511;51.232;9.420;2023-02-01T03:34:30;4.20;99.90
20700;DHT22;10511;51.232;9.420;2023-02-01T03:37:00;4.20;99.90
20700;DHT22;10511;51.232;9.420;2023-02-01T03:39:32;4.20;99.90
20700;DHT22;10511;51.232;9.420;2023-02-01T03:42:04;4.20;99.90
20700;DHT22;10511;51.232;9.420;2023-02-01T03:44:34;4.20;99.90
20700;DHT22;10511;51.232;9.420;2023-02-01T03:47:04;4.30;99.90
20700;DHT22;10511;51.232;9.420;2023-02-01T03:49:34;4.30;99.90
20700;DHT22;10511;51.232;9.420;2023-02-01T03:52:03;4.30;99.90
20700;DHT22;10511;51.232;9.420;2023-02-01T03:54:33;4.20;99.90
20700;DHT22;10511;51.232;9.420;2023-02-01T03:57:04;4.20;99.90
20700;DHT22;10511;51.232;9.420;2023-02-01T03:59:33;4.20;99.90
20700;DHT22;10511;51.232;9.420;2023-02-01T04:02:00;4.30;99.90
20700;DHT22;10511;51.232;9.420;2023-02-01T04:04:27;4.30;99.90
20700;DHT22;10511;51.232;9.420;2023-02-01T04:06:53;4.30;99.90
20700;DHT22;10511;51.232;9.420;2023-02-01T04:09:20;4.30;99.90
20700;DHT22;10511;51.232;9.420;2023-02-01T04:11:49;4.30;99.90
20700;DHT22;10511;51.232;9.420;2023-02-01T04:14:15;4.40;99.90
20700;DHT22;10511;51.232;9.420;2023-02-01T04:16:42;4.40;99.90
20700;DHT22;10511;51.232;9.420;2023-02-01T04:19:09;4.50;99.90
20700;DHT22;10511;51.232;9.420;2023-02-01T04:21:36;4.50;99.90
20700;DHT22;10511;51.232;9.420;2023-02-01T04:24:04;4.50;99.90
20700;DHT22;10511;51.232;9.420;2023-02-01T04:26:31;4.50;99.90
20700;DHT22;10511;51.232;9.420;2023-02-01T04:28:59;4.50;99.90
20700;DHT22;10511;51.232;9.420;2023-02-01T04:31:26;4.50;99.90
20700;DHT22;10511;51.232;9.420;2023-02-01T04:33:54;4.30;99.90
20700;DHT22;10511;51.232;9.420;2023-02-01T04:36:23;4.50;99.90
20700;DHT22;10511;51.232;9.420;2023-02-01T04:38:50;4.40;99.90
20700;DHT22;10511;51.232;9.420;2023-02-01T04:41:18;4.40;99.90
20700;DHT22;10511;51.232;9.420;2023-02-01T04:43:45;4.40;99.90
20700;DHT22;10511;51.232;9.420;2023-02-01T04:46:14;4.40;99.90
20700;DHT22;10511;51.232;9.420;2023-02-01T04:48:40;4.50;99.90
20700;DHT22;10511;51.232;9.420;2023-02-01T04:51:09;4.50;99.90
20700;DHT22;10511;51.232;9.420;2023-02-01T04:53:36;4.60;99.90
20700;DHT22;10511;51.232;9.420;2023-02-01T04:56:04;4.60;99.90
20700;DHT22;10511;51.232;9.420;2023-02-01T04:58:31;4.50;99.90
20700;DHT22;10511;51.232;9.420;2023-02-01T05:00:58;4.50;99.90
20700;DHT22;10511;51.232;9.420;2023-02-01T05:03:26;4.50;99.90
20700;DHT22;10511;51.232;9.420;2023-02-01T05:05:53;4.50;99.90
20700;DHT22;10511;51.232;9.420;2023-02-01T05:08:20;4.60;99.90
20700;DHT22;10511;51.232;9.420;2023-02-01T05:10:48;4.70;99.90
20700;DHT22;10511;51.232;9.420;2023-02-01T05:13:15;4.70;99.90
20700;DHT22;10511;51.232;9.420;2023-02-01T05:15:59;4.70;99.90
20700;DHT22;10511;51.232;9.420;2023-02-01T05:18:28;4.70;99.90
20700;DHT22;10511;51.232;9.420;2023-02-01T05:20:54;4.70;99.90
20700;DHT22;10511;51.232;9.420;2023-02-01T05:23:22;4.80;99.90
20700;DHT22;10511;51.232;9.420;2023-02-01T05:25:51;4.80;99.90
20700;DHT22;10511;51.232;9.420;2023-02-01T05:28:18;4.80;99.90
20700;DHT22;10511;51.232;9.420;2023-02-01T05:30:45;4.80;99.90
20700;DHT22;10511;51.232;9.420;2023-02-01T05:33:12;4.80;99.90
20700;DHT22;10511;51.232;9.420;2023-02-01T05:35:40;4.80;99.90
20700;DHT22;10511;51.232;9.420;2023-02-01T05:38:07;4.80;99.90
20700;DHT22;10511;51.232;9.420;2023-02-01T05:40:34;4.80;99.90
20700;DHT22;10511;51.232;9.420;2023-02-01T05:43:01;4.80;99.90
20700;DHT22;10511;51.232;9.420;2023-02-01T05:45:27;4.70;99.90
20700;DHT22;10511;51.232;9.420;2023-02-01T05:47:55;4.80;99.90
20700;DHT22;10511;51.232;9.420;2023-02-01T05:50:22;4.80;99.90
20700;DHT22;10511;51.232;9.420;2023-02-01T05:52:50;4.80;99.90
20700;DHT22;10511;51.232;9.420;2023-02-01T05:55:17;4.80;99.90
20700;DHT22;10511;51.232;9.420;2023-02-01T05:57:44;4.90;99.90
20700;DHT22;10511;51.232;9.420;2023-02-01T06:00:11;4.90;99.90
20700;DHT22;10511;51.232;9.420;2023-02-01T06:02:38;4.90;99.90
20700;DHT22;10511;51.232;9.420;2023-02-01T06:05:07;4.90;99.90
20700;DHT22;10511;51.232;9.420;2023-02-01T06:07:34;4.90;99.90
20700;DHT22;10511;51.232;9.420;2023-02-01T06:10:02;4.90;99.90
20700;DHT22;10511;51.232;9.420;2023-02-01T06:12:30;4.80;99.90
20700;DHT22;10511;51.232;9.420;2023-02-01T06:14:57;4.70;99.90
20700;DHT22;10511;51.232;9.420;2023-02-01T06:17:24;4.60;99.90
20700;DHT22;10511;51.232;9.420;2023-02-01T06:19:51;4.60;99.90
20700;DHT22;10511;51.232;9.420;2023-02-01T06:22:17;4.70;99.90
20700;DHT22;10511;51.232;9.420;2023-02-01T06:24:44;4.80;99.90
20700;DHT22;10511;51.232;9.420;2023-02-01T06:27:13;4.80;99.90
20700;DHT22;10511;51.232;9.420;2023-02-01T06:29:40;4.80;99.90
20700;DHT22;10511;51.232;9.420;2023-02-01T06:32:06;4.80;99.90
20700;DHT22;10511;51.232;9.420;2023-02-01T06:34:34;4.80;99.90
20700;DHT22;10511;51.232;9.420;2023-02-01T06:37:02;4.80;99.90
20700;DHT22;10511;51.232;9.420;2023-02-01T06:39:29;4.80;99.90
20700;DHT22;10511;51.232;9.420;2023-02-01T06:41:56;4.80;99.90
20700;DHT22;10511;51.232;9.420;2023-02-01T06:44:24;4.80;99.90
20700;DHT22;10511;51.232;9.420;2023-02-01T06:46:51;4.70;99.90
20700;DHT22;10511;51.232;9.420;2023-02-01T06:49:18;4.70;99.90
20700;DHT22;10511;51.232;9.420;2023-02-01T06:51:45;4.70;99.90
20700;DHT22;10511;51.232;9.420;2023-02-01T06:54:12;4.60;99.90
20700;DHT22;10511;51.232;9.420;2023-02-01T06:56:39;4.60;99.90
20700;DHT22;10511;51.232;9.420;2023-02-01T06:59:07;4.60;99.90
20700;DHT22;10511;51.232;9.420;2023-02-01T07:01:35;4.60;99.90
20700;DHT22;10511;51.232;9.420;2023-02-01T07:04:02;4.60;99.90
20700;DHT22;10511;51.232;9.420;2023-02-01T07:06:29;4.60;99.90
20700;DHT22;10511;51.232;9.420;2023-02-01T07:08:57;4.60;99.90
20700;DHT22;10511;51.232;9.420;2023-02-01T07:11:24;4.70;99.90
20700;DHT22;10511;51.232;9.420;2023-02-01T07:13:52;4.70;99.90
20700;DHT22;10511;51.232;9.420;2023-02-01T07:16:20;4.70;99.90
20700;DHT22;10511;51.232;9.420;2023-02-01T07:18:49;4.70;99.90
20700;DHT22;10511;51.232;9.420;2023-02-01T07:21:17;4.60;99.90
20700;DHT22;10511;51.232;9.420;2023-02-01T07:23:44;4.70;99.90
20700;DHT22;10511;51.232;9.420;2023-02-01T07:26:12;4.70;99.90
20700;DHT22;10511;51.232;9.420;2023-02-01T07:28:40;4.70;99.90
20700;DHT22;10511;51.232;9.420;2023-02-01T07:31:09;4.80;99.90
20700;DHT22;10511;51.232;9.420;2023-02-01T07:33:37;4.80;99.90
20700;DHT22;10511;51.232;9.420;2023-02-01T07:36:07;4.90;99.90
20700;DHT22;10511;51.232;9.420;2023-02-01T07:38:34;4.90;99.90
20700;DHT22;10511;51.232;9.420;2023-02-01T07:41:02;4.90;99.90
20700;DHT22;10511;51.232;9.420;2023-02-01T07:43:30;5.00;99.90
20700;DHT22;10511;51.232;9.420;2023-02-01T07:45:58;5.00;99.90
20700;DHT22;10511;51.232;9.420;2023-02-01T07:48:26;5.00;99.90
20700;DHT22;10511;51.232;9.420;2023-02-01T07:51:05;5.10;99.90
20700;DHT22;10511;51.232;9.420;2023-02-01T07:53:33;5.10;99.90
20700;DHT22;10511;51.232;9.420;2023-02-01T07:56:01;5.10;99.90
20700;DHT22;10511;51.232;9.420;2023-02-01T07:58:28;5.20;99.90
20700;DHT22;10511;51.232;9.420;2023-02-01T08:00:55;5.20;99.90
20700;DHT22;10511;51.232;9.420;2023-02-01T08:03:39;5.30;99.90
20700;DHT22;10511;51.232;9.420;2023-02-01T08:06:08;5.20;99.90
20700;DHT22;10511;51.232;9.420;2023-02-01T08:08:35;5.30;99.90
20700;DHT22;10511;51.232;9.420;2023-02-01T08:11:03;5.40;99.90
20700;DHT22;10511;51.232;9.420;2023-02-01T08:13:30;5.40;99.90
20700;DHT22;10511;51.232;9.420;2023-02-01T08:15:58;5.40;99.90
20700;DHT22;10511;51.232;9.420;2023-02-01T08:18:25;5.40;99.90
20700;DHT22;10511;51.232;9.420;2023-02-01T08:20:52;5.40;99.90
20700;DHT22;10511;51.232;9.420;2023-02-01T08:23:20;5.50;99.90
20700;DHT22;10511;51.232;9.420;2023-02-01T08:25:47;5.50;99.90
20700;DHT22;10511;51.232;9.420;2023-02-01T08:28:14;5.40;99.90
20700;DHT22;10511;51.232;9.420;2023-02-01T08:30:41;5.30;99.90
20700;DHT22;10511;51.232;9.420;2023-02-01T08:33:08;5.30;99.90
20700;DHT22;10511;51.232;9.420;2023-02-01T08:35:37;5.30;99.90
20700;DHT22;10511;51.232;9.420;2023-02-01T08:38:04;5.30;99.90
20700;DHT22;10511;51.232;9.420;2023-02-01T08:40:33;5.30;99.90
20700;DHT22;10511;51.232;9.420;2023-02-01T08:43:00;5.30;99.90
20700;DHT22;10511;51.232;9.420;2023-02-01T08:45:28;5.30;99.90
20700;DHT22;10511;51.232;9.420;2023-02-01T08:47:56;5.30;99.90
20700;DHT22;10511;51.232;9.420;2023-02-01T08:50:24;5.30;99.90
20700;DHT22;10511;51.232;9.420;2023-02-01T08:52:51;5.40;99.90
20700;DHT22;10511;51.232;9.420;2023-02-01T08:55:18;5.30;99.90
20700;DHT22;10511;51.232;9.420;2023-02-01T08:57:47;5.30;99.90
20700;DHT22;10511;51.232;9.420;2023-02-01T09:00:16;5.40;99.90
20700;DHT22;10511;51.232;9.420;2023-02-01T09:02:43;5.40;99.90
20700;DHT22;10511;51.232;9.420;2023-02-01T09:05:10;5.50;99.90
20700;DHT22;10511;51.232;9.420;2023-02-01T09:07:38;5.50;99.90
20700;DHT22;10511;51.232;9.420;2023-02-01T09:10:05;5.50;99.90
20700;DHT22;10511;51.232;9.420;2023-02-01T09:12:34;5.50;99.90
20700;DHT22;10511;51.232;9.420;2023-02-01T09:15:03;5.60;99.90
20700;DHT22;10511;51.232;9.420;2023-02-01T09:17:32;5.50;99.90
20700;DHT22;10511;51.232;9.420;2023-02-01T09:19:59;5.60;99.90
20700;DHT22;10511;51.232;9.420;2023-02-01T09:22:26;5.60;99.90
20700;DHT22;10511;51.232;9.420;2023-02-01T09:24:53;5.60;99.90
20700;DHT22;10511;51.232;9.420;2023-02-01T09:27:20;5.60;99.90
20700;DHT22;10511;51.232;9.420;2023-02-01T09:29:47;5.60;99.90
20700;DHT22;10511;51.232;9.420;2023-02-01T09:32:19;5.60;99.90
20700;DHT22;10511;51.232;9.420;2023-02-01T09:34:46;5.60;99.90
20700;DHT22;10511;51.232;9.420;2023-02-01T09:37:12;5.70;99.90
20700;DHT22;10511;51.232;9.420;2023-02-01T09:39:40;5.70;99.90
20700;DHT22;10511;51.232;9.420;2023-02-01T09:42:21;5.80;99.90
20700;DHT22;10511;51.232;9.420;2023-02-01T09:45:10;5.70;99.90
20700;DHT22;10511;51.232;9.420;2023-02-01T09:47:46;5.70;99.90
20700;DHT22;10511;51.232;9.420;2023-02-01T09:50:17;5.70;99.90
20700;DHT22;10511;51.232;9.420;2023-02-01T09:52:52;5.70;99.90
20700;DHT22;10511;51.232;9.420;2023-02-01T09:55:24;5.70;99.90
20700;DHT22;10511;51.232;9.420;2023-02-01T09:57:56;5.70;99.90
20700;DHT22;10511;51.232;9.420;2023-02-01T10:00:27;5.70;99.90
20700;DHT22;10511;51.232;9.420;2023-02-01T10:02:57;5.70;99.90
20700;DHT22;10511;51.232;9.420;2023-02-01T10:05:44;5.70;99.90
20700;DHT22;10511;51.232;9.420;2023-02-01T10:08:19;5.70;99.90
20700;DHT22;10511;51.232;9.420;2023-02-01T10:10:53;5.60;99.90
20700;DHT22;10511;51.232;9.420;2023-02-01T10:13:39;5.70;99.90
20700;DHT22;10511;51.232;9.420;2023-02-01T10:16:18;5.70;99.90
20700;DHT22;10511;51.232;9.420;2023-02-01T10:21:53;5.70;99.90
20700;DHT22;10511;51.232;9.420;2023-02-01T10:24:32;5.60;99.90
20700;DHT22;10511;51.232;9.420;2023-02-01T10:27:06;5.70;99.90
20700;DHT22;10511;51.232;9.420;2023-02-01T10:29:38;5.60;99.90
20700;DHT22;10511;51.232;9.420;2023-02-01T10:32:13;5.60;99.90
20700;DHT22;10511;51.232;9.420;2023-02-01T10:34:42;5.60;99.90
20700;DHT22;10511;51.232;9.420;2023-02-01T10:37:18;5.60;99.90
20700;DHT22;10511;51.232;9.420;2023-02-01T10:39:47;5.60;99.90
20700;DHT22;10511;51.232;9.420;2023-02-01T10:42:15;5.60;99.90
20700;DHT22;10511;51.232;9.420;2023-02-01T10:44:44;5.60;99.90
20700;DHT22;10511;51.232;9.420;2023-02-01T10:47:13;5.70;99.90
20700;DHT22;10511;51.232;9.420;2023-02-01T10:49:49;5.70;99.90
20700;DHT22;10511;51.232;9.420;2023-02-01T10:52:24;5.70;99.90
20700;DHT22;10511;51.232;9.420;2023-02-01T10:54:53;5.60;99.90
20700;DHT22;10511;51.232;9.420;2023-02-01T10:57:22;5.70;99.90
20700;DHT22;10511;51.232;9.420;2023-02-01T10:59:51;5.70;99.90
20700;DHT22;10511;51.232;9.420;2023-02-01T11:02:25;5.70;99.90
20700;DHT22;10511;51.232;9.420;2023-02-01T11:05:01;5.70;99.90
20700;DHT22;10511;51.232;9.420;2023-02-01T11:07:29;5.70;99.90
20700;DHT22;10511;51.232;9.420;2023-02-01T11:09:57;5.70;99.90
20700;DHT22;10511;51.232;9.420;2023-02-01T11:12:28;5.70;99.90
20700;DHT22;10511;51.232;9.420;2023-02-01T11:15:12;5.70;99.90
20700;DHT22;10511;51.232;9.420;2023-02-01T11:17:42;5.70;99.90
20700;DHT22;10511;51.232;9.420;2023-02-01T11:20:16;5.70;99.90
20700;DHT22;10511;51.232;9.420;2023-02-01T11:22:47;5.70;99.90
20700;DHT22;10511;51.232;9.420;2023-02-01T11:25:16;5.80;99.90
20700;DHT22;10511;51.232;9.420;2023-02-01T11:27:44;5.80;99.90
20700;DHT22;10511;51.232;9.420;2023-02-01T11:30:16;5.80;99.90
20700;DHT22;10511;51.232;9.420;2023-02-01T11:32:45;5.90;99.90
20700;DHT22;10511;51.232;9.420;2023-02-01T11:35:17;5.90;99.90
20700;DHT22;10511;51.232;9.420;2023-02-01T11:37:50;5.90;99.90
20700;DHT22;10511;51.232;9.420;2023-02-01T11:40:27;5.90;99.90
20700;DHT22;10511;51.232;9.420;2023-02-01T11:42:56;5.90;99.90
20700;DHT22;10511;51.232;9.420;2023-02-01T11:45:28;5.80;99.90
20700;DHT22;10511;51.232;9.420;2023-02-01T11:47:56;5.90;99.90
20700;DHT22;10511;51.232;9.420;2023-02-01T11:50:31;5.90;99.90
20700;DHT22;10511;51.232;9.420;2023-02-01T11:53:11;5.90;99.90
20700;DHT22;10511;51.232;9.420;2023-02-01T11:55:53;6.10;99.90
20700;DHT22;10511;51.232;9.420;2023-02-01T11:58:40;6.10;99.90
20700;DHT22;10511;51.232;9.420;2023-02-01T12:01:22;6.10;99.90
20700;DHT22;10511;51.232;9.420;2023-02-01T12:06:50;6.10;99.90
20700;DHT22;10511;51.232;9.420;2023-02-01T12:09:48;6.20;99.90
20700;DHT22;10511;51.232;9.420;2023-02-01T12:12:24;6.20;99.90
20700;DHT22;10511;51.232;9.420;2023-02-01T12:15:03;6.30;99.90
20700;DHT22;10511;51.232;9.420;2023-02-01T12:17:43;6.20;99.90
20700;DHT22;10511;51.232;9.420;2023-02-01T12:20:34;6.20;99.90
20700;DHT22;10511;51.232;9.420;2023-02-01T12:23:19;6.30;99.90
20700;DHT22;10511;51.232;9.420;2023-02-01T12:26:03;6.20;99.90
20700;DHT22;10511;51.232;9.420;2023-02-01T12:28:53;6.20;99.90
20700;DHT22;10511;51.232;9.420;2023-02-01T12:31:46;6.20;99.90
20700;DHT22;10511;51.232;9.420;2023-02-01T12:34:29;6.20;99.90
20700;DHT22;10511;51.232;9.420;2023-02-01T12:37:03;6.20;99.90
20700;DHT22;10511;51.232;9.420;2023-02-01T12:39:40;6.20;99.90
20700;DHT22;10511;51.232;9.420;2023-02-01T12:42:13;6.20;99.90
20700;DHT22;10511;51.232;9.420;2023-02-01T12:44:49;6.10;99.90
20700;DHT22;10511;51.232;9.420;2023-02-01T12:47:21;6.20;99.90
20700;DHT22;10511;51.232;9.420;2023-02-01T12:49:55;6.20;99.90
20700;DHT22;10511;51.232;9.420;2023-02-01T12:52:28;6.10;99.90
20700;DHT22;10511;51.232;9.420;2023-02-01T12:55:06;6.10;99.90
20700;DHT22;10511;51.232;9.420;2023-02-01T12:57:36;6.10;99.90
20700;DHT22;10511;51.232;9.420;2023-02-01T13:00:13;6.10;99.90
20700;DHT22;10511;51.232;9.420;2023-02-01T13:02:52;6.10;99.90
20700;DHT22;10511;51.232;9.420;2023-02-01T13:05:22;6.10;99.90
20700;DHT22;10511;51.232;9.420;2023-02-01T13:07:55;6.10;99.90
20700;DHT22;10511;51.232;9.420;2023-02-01T13:10:32;6.10;99.90
20700;DHT22;10511;51.232;9.420;2023-02-01T13:13:05;6.00;99.90
20700;DHT22;10511;51.232;9.420;2023-02-01T13:15:40;6.00;99.90
20700;DHT22;10511;51.232;9.420;2023-02-01T13:18:14;6.00;99.90
20700;DHT22;10511;51.232;9.420;2023-02-01T13:20:49;6.00;99.90
20700;DHT22;10511;51.232;9.420;2023-02-01T13:23:23;6.00;99.90
20700;DHT22;10511;51.232;9.420;2023-02-01T13:25:54;5.90;99.90
20700;DHT22;10511;51.232;9.420;2023-02-01T13:28:25;5.90;99.90
20700;DHT22;10511;51.232;9.420;2023-02-01T13:31:23;5.80;99.90
20700;DHT22;10511;51.232;9.420;2023-02-01T13:34:32;5.80;99.90
20700;DHT22;10511;51.232;9.420;2023-02-01T13:37:14;5.70;99.90
20700;DHT22;10511;51.232;9.420;2023-02-01T13:40:10;5.70;99.90
20700;DHT22;10511;51.232;9.420;2023-02-01T13:42:48;5.60;99.90
20700;DHT22;10511;51.232;9.420;2023-02-01T13:45:18;5.60;99.90
20700;DHT22;10511;51.232;9.420;2023-02-01T13:47:48;5.60;99.90
20700;DHT22;10511;51.232;9.420;2023-02-01T13:50:23;5.50;99.90
20700;DHT22;10511;51.232;9.420;2023-02-01T13:52:54;5.50;99.90
20700;DHT22;10511;51.232;9.420;2023-02-01T13:55:43;5.50;99.90
20700;DHT22;10511;51.232;9.420;2023-02-01T13:58:18;5.60;99.90
20700;DHT22;10511;51.232;9.420;2023-02-01T14:00:46;5.60;99.90
20700;DHT22;10511;51.232;9.420;2023-02-01T14:03:18;5.50;99.90
20700;DHT22;10511;51.232;9.420;2023-02-01T14:06:05;5.50;99.90
20700;DHT22;10511;51.232;9.420;2023-02-01T14:11:37;5.50;99.90
20700;DHT22;10511;51.232;9.420;2023-02-01T14:23:37;5.20;99.90
20700;DHT22;10511;51.232;9.420;2023-02-01T14:26:11;5.10;99.90
20700;DHT22;10511;51.232;9.420;2023-02-01T14:28:51;5.10;99.90
20700;DHT22;10511;51.232;9.420;2023-02-01T14:31:42;5.10;99.90
20700;DHT22;10511;51.232;9.420;2023-02-01T14:34:16;5.10;99.90
20700;DHT22;10511;51.232;9.420;2023-02-01T14:36:49;5.10;99.90
20700;DHT22;10511;51.232;9.420;2023-02-01T14:39:25;5.10;99.90
20700;DHT22;10511;51.232;9.420;2023-02-01T14:41:55;5.10;99.90
20700;DHT22;10511;51.232;9.420;2023-02-01T14:44:29;5.10;99.90
20700;DHT22;10511;51.232;9.420;2023-02-01T14:49:52;5.10;99.90
20700;DHT22;10511;51.232;9.420;2023-02-01T14:52:29;5.10;99.90
20700;DHT22;10511;51.232;9.420;2023-02-01T14:55:03;5.10;99.90
20700;DHT22;10511;51.232;9.420;2023-02-01T14:57:34;4.80;99.90
20700;DHT22;10511;51.232;9.420;2023-02-01T15:00:15;4.70;99.90
20700;DHT22;10511;51.232;9.420;2023-02-01T15:02:43;4.70;99.90
20700;DHT22;10511;51.232;9.420;2023-02-01T15:05:23;4.70;99.90
20700;DHT22;10511;51.232;9.420;2023-02-01T15:07:51;4.70;99.90
20700;DHT22;10511;51.232;9.420;2023-02-01T15:10:21;4.70;99.90
20700;DHT22;10511;51.232;9.420;2023-02-01T15:12:49;4.70;99.90
20700;DHT22;10511;51.232;9.420;2023-02-01T15:15:18;4.70;99.90
20700;DHT22;10511;51.232;9.420;2023-02-01T15:17:53;4.70;99.90
20700;DHT22;10511;51.232;9.420;2023-02-01T15:20:22;4.70;99.90
20700;DHT22;10511;51.232;9.420;2023-02-01T15:22:54;4.70;99.90
20700;DHT22;10511;51.232;9.420;2023-02-01T15:25:25;4.70;99.90
20700;DHT22;10511;51.232;9.420;2023-02-01T15:27:52;4.60;99.90
20700;DHT22;10511;51.232;9.420;2023-02-01T15:30:22;4.60;99.90
20700;DHT22;10511;51.232;9.420;2023-02-01T15:32:49;4.60;99.90
20700;DHT22;10511;51.232;9.420;2023-02-01T15:35:40;4.60;99.90
20700;DHT22;10511;51.232;9.420;2023-02-01T15:38:34;4.70;99.90
20700;DHT22;10511;51.232;9.420;2023-02-01T15:41:05;4.80;99.90
20700;DHT22;10511;51.232;9.420;2023-02-01T15:43:36;4.80;99.90
20700;DHT22;10511;51.232;9.420;2023-02-01T15:46:07;4.80;99.90
20700;DHT22;10511;51.232;9.420;2023-02-01T15:48:38;4.80;99.90
20700;DHT22;10511;51.232;9.420;2023-02-01T15:51:06;4.70;99.90
20700;DHT22;10511;51.232;9.420;2023-02-01T15:53:38;4.80;99.90
20700;DHT22;10511;51.232;9.420;2023-02-01T15:56:11;4.70;99.90
20700;DHT22;10511;51.232;9.420;2023-02-01T15:58:41;4.70;99.90
20700;DHT22;10511;51.232;9.420;2023-02-01T16:01:11;4.70;99.90
20700;DHT22;10511;51.232;9.420;2023-02-01T16:03:42;4.70;99.90
20700;DHT22;10511;51.232;9.420;2023-02-01T16:06:11;4.60;99.90
20700;DHT22;10511;51.232;9.420;2023-02-01T16:08:49;4.60;99.90
20700;DHT22;10511;51.232;9.420;2023-02-01T16:11:26;4.70;99.90
20700;DHT22;10511;51.232;9.420;2023-02-01T16:13:56;4.80;99.90
20700;DHT22;10511;51.232;9.420;2023-02-01T16:16:23;4.80;99.90
20700;DHT22;10511;51.232;9.420;2023-02-01T16:18:50;4.80;99.90
20700;DHT22;10511;51.232;9.420;2023-02-01T16:21:16;4.70;99.90
20700;DHT22;10511;51.232;9.420;2023-02-01T16:23:43;4.70;99.90
20700;DHT22;10511;51.232;9.420;2023-02-01T16:26:14;4.80;99.90
20700;DHT22;10511;51.232;9.420;2023-02-01T16:28:42;4.80;99.90
20700;DHT22;10511;51.232;9.420;2023-02-01T16:31:12;4.80;99.90
20700;DHT22;10511;51.232;9.420;2023-02-01T16:33:46;4.70;99.90
20700;DHT22;10511;51.232;9.420;2023-02-01T16:36:14;4.80;99.90
20700;DHT22;10511;51.232;9.420;2023-02-01T16:38:41;4.80;99.90